Time;durP1;ratioP1;P1;durP2;ratioP2;P2;SDS_P1;SDS_P2;PMS_P1;PMS_P2;Temp;Humidity;BMP_temperature;BMP_pressure;BME280_temperature;BME280_humidity;BME280_pressure;Samples;Min_cycle;Max_cycle;Signal;HPM_P1;HPM_P2
2022/09/09 00:00:24;;;;;;;1999.90;999.90;;;18.60;99.90;;;;;;5053126;28;20060;-83
2022/09/09 00:03:12;;;;;;;1999.90;999.90;;;18.50;99.90;;;;;;5054468;28;20032;-73
2022/09/09 00:05:56;;;;;;;1999.90;999.90;;;18.40;99.90;;;;;;5054848;28;20043;-84
2022/09/09 00:08:32;;;;;;;1999.90;999.90;;;18.40;99.90;;;;;;5054390;28;20029;-75
2022/09/09 00:11:01;;;;;;;1999.90;999.90;;;18.40;99.90;;;;;;5054138;28;20094;-73
2022/09/09 00:13:33;;;;;;;1999.90;999.90;;;18.40;99.90;;;;;;5054009;28;20146;-83
2022/09/09 00:16:16;;;;;;;1999.90;999.90;;;18.30;99.90;;;;;;5054186;28;20025;-83
2022/09/09 00:19:06;;;;;;;1999.90;999.90;;;18.30;99.90;;;;;;5053750;28;20033;-74
2022/09/09 00:21:38;;;;;;;1999.90;999.90;;;18.40;99.90;;;;;;5054384;28;20049;-83
2022/09/09 00:24:22;;;;;;;1999.90;999.90;;;18.40;99.90;;;;;;5053882;28;20025;-74
2022/09/09 00:26:53;;;;;;;1999.90;999.90;;;18.30;99.90;;;;;;5054244;28;20083;-83
2022/09/09 00:29:45;;;;;;;1999.90;999.90;;;18.30;99.90;;;;;;5053699;28;20131;-74
2022/09/09 00:32:18;;;;;;;1999.90;999.90;;;18.20;99.90;;;;;;5053607;28;20019;-82
2022/09/09 00:34:50;;;;;;;1999.90;999.90;;;18.20;99.90;;;;;;5053803;28;20028;-73
2022/09/09 00:37:16;;;;;;;1999.90;999.90;;;18.20;99.90;;;;;;5052547;28;20357;-73
2022/09/09 00:39:46;;;;;;;1999.90;999.90;;;18.20;99.90;;;;;;5053568;28;20055;-83
2022/09/09 00:42:42;;;;;;;1999.90;999.90;;;18.20;99.90;;;;;;5053742;28;20396;-83
2022/09/09 00:45:46;;;;;;;1999.90;999.90;;;18.20;99.90;;;;;;5053481;28;20503;-73
2022/09/09 00:48:13;;;;;;;1999.90;999.90;;;18.30;99.90;;;;;;5032207;28;20041;-73
2022/09/09 00:50:49;;;;;;;1999.90;999.90;;;18.20;99.90;;;;;;5053878;28;20021;-73
2022/09/09 00:53:32;;;;;;;1999.90;999.90;;;18.30;99.90;;;;;;5053739;28;20021;-83
2022/09/09 00:56:01;;;;;;;1999.90;999.90;;;18.20;99.90;;;;;;5033399;28;20029;-83
2022/09/09 00:58:27;;;;;;;1999.90;999.90;;;18.20;99.90;;;;;;5036277;28;20684;-83
2022/09/09 01:01:08;;;;;;;1999.90;999.90;;;18.20;99.90;;;;;;5052301;28;20048;-82
2022/09/09 01:03:53;;;;;;;1999.90;999.90;;;18.20;99.90;;;;;;5053721;28;20071;-73
2022/09/09 01:06:30;;;;;;;1999.90;999.90;;;18.20;99.90;;;;;;5053498;28;20036;-73
2022/09/09 01:09:05;;;;;;;1999.90;999.90;;;18.20;99.90;;;;;;5053111;28;20601;-74
2022/09/09 01:12:10;;;;;;;1999.90;999.90;;;18.20;99.90;;;;;;5052976;28;20021;-74
2022/09/09 01:14:39;;;;;;;1999.90;999.90;;;18.20;99.90;;;;;;5053419;28;20049;-80
2022/09/09 01:17:34;;;;;;;1999.90;999.90;;;18.30;99.90;;;;;;5053096;28;20043;-83
2022/09/09 01:20:09;;;;;;;1999.90;999.90;;;18.40;99.90;;;;;;5051992;28;20025;-83
2022/09/09 01:22:50;;;;;;;1999.90;999.90;;;18.40;99.90;;;;;;5052957;28;20033;-74
2022/09/09 01:25:43;;;;;;;1999.90;999.90;;;18.40;99.90;;;;;;5053356;28;20055;-73
2022/09/09 01:28:19;;;;;;;1999.90;999.90;;;18.40;99.90;;;;;;5052859;28;20526;-74
2022/09/09 01:30:44;;;;;;;1999.90;999.90;;;18.40;99.90;;;;;;5052790;28;20052;-73
2022/09/09 01:33:15;;;;;;;1999.90;999.90;;;18.50;99.90;;;;;;5052954;28;20056;-81
2022/09/09 01:36:02;;;;;;;1999.90;999.90;;;18.50;99.90;;;;;;5052760;28;20493;-82
2022/09/09 01:38:29;;;;;;;1999.90;999.90;;;18.50;99.90;;;;;;5052897;28;20399;-73
2022/09/09 01:40:55;;;;;;;1999.90;999.90;;;18.30;99.90;;;;;;5053229;28;20249;-82
2022/09/09 01:43:22;;;;;;;1999.90;999.90;;;18.20;99.90;;;;;;5052950;28;20429;-73
2022/09/09 01:45:50;;;;;;;1999.90;999.90;;;18.10;99.90;;;;;;5052327;28;20025;-83
2022/09/09 01:48:18;;;;;;;1999.90;999.90;;;18.10;99.90;;;;;;5052963;28;20078;-83
2022/09/09 01:50:44;;;;;;;1999.90;999.90;;;18.00;99.90;;;;;;5052610;28;20014;-83
2022/09/09 01:53:11;;;;;;;1999.90;999.90;;;18.00;99.90;;;;;;5052895;28;20029;-73
2022/09/09 01:55:40;;;;;;;1999.90;999.90;;;17.90;99.90;;;;;;5035362;28;20029;-82
2022/09/09 01:58:11;;;;;;;1999.90;999.90;;;17.90;99.90;;;;;;5033298;28;20040;-78
2022/09/09 02:00:48;;;;;;;1999.90;999.90;;;17.90;99.90;;;;;;5051634;28;20033;-83
2022/09/09 02:03:27;;;;;;;1999.90;999.90;;;17.90;99.90;;;;;;5052960;28;20067;-82
2022/09/09 02:06:19;;;;;;;1999.90;999.90;;;17.90;99.90;;;;;;5052750;28;20036;-73
2022/09/09 02:08:57;;;;;;;1999.90;999.90;;;18.00;99.90;;;;;;5052834;28;20025;-73
2022/09/09 02:11:25;;;;;;;1999.90;999.90;;;17.90;99.90;;;;;;5054789;28;20028;-74
2022/09/09 02:14:08;;;;;;;1999.90;999.90;;;18.00;99.90;;;;;;5056597;28;20484;-83
2022/09/09 02:16:47;;;;;;;1999.90;999.90;;;18.00;99.90;;;;;;5056369;28;20021;-83
2022/09/09 02:19:46;;;;;;;1999.90;999.90;;;18.00;99.90;;;;;;5056069;28;20060;-73
2022/09/09 02:22:12;;;;;;;1999.90;999.90;;;18.00;99.90;;;;;;5056329;28;20056;-81
2022/09/09 02:24:40;;;;;;;1999.90;999.90;;;18.00;99.90;;;;;;5056093;28;20519;-73
2022/09/09 02:27:08;;;;;;;1999.90;999.90;;;17.90;99.90;;;;;;5056545;28;20028;-82
2022/09/09 02:29:41;;;;;;;1999.90;999.90;;;18.00;99.90;;;;;;5056157;28;20056;-83
2022/09/09 02:32:14;;;;;;;1999.90;999.90;;;18.00;99.90;;;;;;5054850;28;20025;-73
2022/09/09 02:34:42;;;;;;;;;;;18.10;99.90;;;;;;5056300;28;20025;-73
2022/09/09 02:37:10;;;;;;;1999.90;999.90;;;18.20;99.90;;;;;;5056212;28;19905;-83
2022/09/09 02:39:36;;;;;;;1999.90;999.90;;;18.30;99.90;;;;;;5055940;28;20029;-73
2022/09/09 02:42:04;;;;;;;1999.90;999.90;;;18.30;99.90;;;;;;5055937;28;20378;-73
2022/09/09 02:44:30;;;;;;;1999.90;999.90;;;18.40;99.90;;;;;;5055534;28;20070;-73
2022/09/09 02:47:28;;;;;;;1999.90;999.90;;;18.40;99.90;;;;;;5055634;28;20036;-73
2022/09/09 02:49:57;;;;;;;1999.90;999.90;;;18.40;99.90;;;;;;5055299;28;20060;-82
2022/09/09 02:52:41;;;;;;;1999.90;999.90;;;18.50;99.90;;;;;;5056068;28;20033;-83
2022/09/09 02:55:16;;;;;;;1999.90;999.90;;;18.50;99.90;;;;;;5042360;28;20025;-73
2022/09/09 02:57:46;;;;;;;1999.90;999.90;;;18.50;99.90;;;;;;5035709;28;20534;-83
2022/09/09 03:00:13;;;;;;;1999.90;999.90;;;18.50;99.90;;;;;;5053402;28;20108;-73
2022/09/09 03:02:38;;;;;;;1999.90;999.90;;;18.50;99.90;;;;;;5054125;28;20055;-83
2022/09/09 03:05:06;;;;;;;1999.90;999.90;;;18.50;99.90;;;;;;5055592;28;20028;-83
2022/09/09 03:07:32;;;;;;;1999.90;999.90;;;18.40;99.90;;;;;;5055298;28;20028;-83
2022/09/09 03:09:58;;;;;;;1999.90;999.90;;;18.40;99.90;;;;;;5055445;28;20111;-83
2022/09/09 03:12:23;;;;;;;1999.90;999.90;;;18.40;99.90;;;;;;5055216;28;20472;-74
2022/09/09 03:14:49;;;;;;;1999.90;999.90;;;18.30;99.90;;;;;;5055213;28;20025;-78
2022/09/09 03:17:15;;;;;;;1999.90;999.90;;;18.20;99.90;;;;;;5055136;28;20364;-82
2022/09/09 03:19:41;;;;;;;1999.90;999.90;;;18.20;99.90;;;;;;5054108;28;20379;-83
2022/09/09 03:22:09;;;;;;;1999.90;999.90;;;18.20;99.90;;;;;;5054959;28;20377;-74
2022/09/09 03:24:34;;;;;;;1999.90;999.90;;;18.20;99.90;;;;;;5055315;28;20041;-83
2022/09/09 03:27:00;;;;;;;1999.90;999.90;;;18.20;99.90;;;;;;5055479;28;20075;-83
2022/09/09 03:29:26;;;;;;;1999.90;999.90;;;18.10;99.90;;;;;;5055083;28;20045;-83
2022/09/09 03:31:51;;;;;;;1999.90;999.90;;;18.10;99.90;;;;;;5054836;28;20067;-73
2022/09/09 03:34:17;;;;;;;1999.90;999.90;;;18.00;99.90;;;;;;5055080;28;20040;-73
2022/09/09 03:36:42;;;;;;;1999.90;999.90;;;18.00;99.90;;;;;;5054680;28;20366;-73
2022/09/09 03:39:08;;;;;;;1999.90;999.90;;;17.90;99.90;;;;;;5055057;28;20032;-74
2022/09/09 03:41:34;;;;;;;1999.90;999.90;;;18.00;99.90;;;;;;5055169;28;20551;-73
2022/09/09 03:43:59;;;;;;;1999.90;999.90;;;18.00;99.90;;;;;;5054620;28;20035;-82
2022/09/09 03:46:26;;;;;;;1999.90;999.90;;;18.00;99.90;;;;;;5054455;28;20056;-83
2022/09/09 03:48:54;;;;;;;1999.90;999.90;;;18.00;99.90;;;;;;5054936;28;20021;-83
2022/09/09 03:51:21;;;;;;;1999.90;999.90;;;17.90;99.90;;;;;;5054726;28;20029;-73
2022/09/09 03:53:47;;;;;;;1999.90;999.90;;;18.10;99.90;;;;;;5052584;28;20392;-73
2022/09/09 03:56:13;;;;;;;1999.90;999.90;;;18.10;99.90;;;;;;5034764;28;20025;-74
2022/09/09 03:58:39;;;;;;;1999.90;999.90;;;18.10;99.90;;;;;;5039296;28;20025;-82
2022/09/09 04:01:13;;;;;;;1999.90;999.90;;;18.10;99.90;;;;;;5054558;28;20108;-82
2022/09/09 04:03:39;;;;;;;1999.90;999.90;;;18.10;99.90;;;;;;5052663;28;20029;-74
2022/09/09 04:06:06;;;;;;;1999.90;999.90;;;18.20;99.90;;;;;;5054591;28;20064;-73
2022/09/09 04:08:32;;;;;;;1999.90;999.90;;;18.10;99.90;;;;;;5054342;28;20021;-82
2022/09/09 04:11:00;;;;;;;1999.90;999.90;;;17.90;99.90;;;;;;5054174;28;20021;-82
2022/09/09 04:13:26;;;;;;;1999.90;999.90;;;17.70;99.90;;;;;;5054206;28;20412;-83
2022/09/09 04:15:53;;;;;;;1999.90;999.90;;;17.70;99.90;;;;;;5053887;28;20017;-74
2022/09/09 04:18:19;;;;;;;1999.90;999.90;;;17.70;99.90;;;;;;5053482;28;20039;-74
2022/09/09 04:20:50;;;;;;;1999.90;999.90;;;17.70;99.90;;;;;;5054242;28;20408;-74
2022/09/09 04:23:18;;;;;;;1999.90;999.90;;;17.70;99.90;;;;;;5053804;28;20025;-73
2022/09/09 04:25:46;;;;;;;1999.90;999.90;;;17.80;99.90;;;;;;5054365;28;20079;-83
2022/09/09 04:28:13;;;;;;;1999.90;999.90;;;17.80;99.90;;;;;;5054280;28;20049;-73
2022/09/09 04:30:39;;;;;;;1999.90;999.90;;;17.80;99.90;;;;;;5053721;28;20036;-73
2022/09/09 04:33:06;;;;;;;1999.90;999.90;;;17.90;99.90;;;;;;5053369;28;20032;-83
2022/09/09 04:35:32;;;;;;;1999.90;999.90;;;17.90;99.90;;;;;;5053877;28;20063;-83
2022/09/09 04:37:58;;;;;;;1999.90;999.90;;;17.90;99.90;;;;;;5053746;28;20029;-73
2022/09/09 04:40:24;;;;;;;1999.90;999.90;;;17.90;99.90;;;;;;5052500;28;20018;-73
2022/09/09 04:42:50;;;;;;;1999.90;999.90;;;18.00;99.90;;;;;;5053883;28;20021;-73
2022/09/09 04:45:16;;;;;;;1999.90;999.90;;;18.00;99.90;;;;;;5053683;28;20051;-73
2022/09/09 04:47:42;;;;;;;1999.90;999.90;;;18.00;99.90;;;;;;5053702;28;20399;-83
2022/09/09 04:50:08;;;;;;;1999.90;999.90;;;18.00;99.90;;;;;;5053495;28;20028;-82
2022/09/09 04:52:35;;;;;;;1999.90;999.90;;;17.90;99.90;;;;;;5052314;28;20408;-84
2022/09/09 04:55:01;;;;;;;1999.90;999.90;;;17.90;99.90;;;;;;5038494;28;20465;-73
2022/09/09 04:57:28;;;;;;;1999.90;999.90;;;17.80;99.90;;;;;;5033322;28;20096;-73
2022/09/09 04:59:54;;;;;;;1999.90;999.90;;;17.80;99.90;;;;;;5051833;28;20024;-81
2022/09/09 05:02:19;;;;;;;1999.90;999.90;;;17.80;99.90;;;;;;5053353;28;20032;-73
2022/09/09 05:04:45;;;;;;;1999.90;999.90;;;17.70;99.90;;;;;;5052971;28;20024;-83
2022/09/09 05:07:11;;;;;;;1999.90;999.90;;;17.70;99.90;;;;;;5052974;28;20029;-73
2022/09/09 05:09:36;;;;;;;1999.90;999.90;;;17.80;99.90;;;;;;5052623;28;20021;-73
2022/09/09 05:12:02;;;;;;;1999.90;999.90;;;17.70;99.90;;;;;;5053069;28;20045;-83
2022/09/09 05:14:29;;;;;;;1999.90;999.90;;;17.70;99.90;;;;;;5053362;28;20074;-74
2022/09/09 05:16:55;;;;;;;1999.90;999.90;;;17.70;99.90;;;;;;5053212;28;20049;-73
2022/09/09 05:19:21;;;;;;;1999.90;999.90;;;17.60;99.90;;;;;;5052684;28;20053;-73
2022/09/09 05:21:47;;;;;;;1999.90;999.90;;;17.70;99.90;;;;;;5052691;28;20487;-74
2022/09/09 05:24:13;;;;;;;1999.90;999.90;;;17.70;99.90;;;;;;5052750;28;20381;-73
2022/09/09 05:26:39;;;;;;;1999.90;999.90;;;17.70;99.90;;;;;;5053024;28;20033;-83
2022/09/09 05:29:05;;;;;;;1999.90;999.90;;;17.70;99.90;;;;;;5051473;28;20045;-83
2022/09/09 05:31:32;;;;;;;1999.90;999.90;;;17.70;99.90;;;;;;5040120;28;20067;-74
2022/09/09 05:33:59;;;;;;;1999.90;999.90;;;17.70;99.90;;;;;;5032922;28;20045;-74
2022/09/09 05:36:24;;;;;;;1999.90;999.90;;;17.80;99.90;;;;;;5032292;28;20026;-73
2022/09/09 05:38:50;;;;;;;1999.90;999.90;;;17.70;99.90;;;;;;5042362;28;20036;-82
2022/09/09 05:41:17;;;;;;;1999.90;999.90;;;17.70;99.90;;;;;;5052916;28;20025;-73
2022/09/09 05:43:44;;;;;;;1999.90;999.90;;;17.70;99.90;;;;;;5051964;28;20048;-73
2022/09/09 05:46:10;;;;;;;1999.90;999.90;;;17.80;99.90;;;;;;5055507;28;20488;-73
2022/09/09 05:48:46;;;;;;;1999.90;999.90;;;17.80;99.90;;;;;;5056670;28;20033;-73
2022/09/09 05:51:15;;;;;;;1999.90;999.90;;;17.80;99.90;;;;;;5056706;28;20017;-82
2022/09/09 05:53:41;;;;;;;1999.90;999.90;;;17.80;99.90;;;;;;5056763;28;20024;-83
2022/09/09 05:56:15;;;;;;;1999.90;999.90;;;17.80;99.90;;;;;;5043128;28;20476;-83
2022/09/09 05:58:43;;;;;;;1999.90;999.90;;;17.70;99.90;;;;;;5041796;28;20025;-73
2022/09/09 06:01:14;;;;;;;1999.90;999.90;;;17.80;99.90;;;;;;5056306;28;20024;-73
2022/09/09 06:03:42;;;;;;;1999.90;999.90;;;17.80;99.90;;;;;;5055799;28;20111;-73
2022/09/09 06:06:10;;;;;;;1999.90;999.90;;;17.80;99.90;;;;;;5055944;28;20021;-77
2022/09/09 06:08:40;;;;;;;1999.90;999.90;;;17.90;99.90;;;;;;5052602;28;20051;-82
2022/09/09 06:11:09;;;;;;;1999.90;999.90;;;17.90;99.90;;;;;;5056028;28;20057;-83
2022/09/09 06:13:37;;;;;;;1999.90;999.90;;;17.90;99.90;;;;;;5053699;28;20103;-74
2022/09/09 06:16:04;;;;;;;1999.90;999.90;;;18.00;99.90;;;;;;5055241;28;20122;-83
2022/09/09 06:18:29;;;;;;;1999.90;999.90;;;18.00;99.90;;;;;;5053905;28;20056;-74
2022/09/09 06:21:04;;;;;;;1999.90;999.90;;;18.00;99.90;;;;;;5055069;28;20421;-74
2022/09/09 06:23:30;;;;;;;1999.90;999.90;;;18.10;99.90;;;;;;5055355;28;20024;-83
2022/09/09 06:26:10;;;;;;;1999.90;999.90;;;18.10;99.90;;;;;;5055197;28;20108;-73
2022/09/09 06:28:37;;;;;;;1999.90;999.90;;;18.10;99.90;;;;;;5053637;28;20063;-74
2022/09/09 06:31:05;;;;;;;1999.90;999.90;;;18.20;99.90;;;;;;5049182;28;20017;-74
2022/09/09 06:33:35;;;;;;;1999.90;999.90;;;18.20;99.90;;;;;;5055792;28;20033;-83
2022/09/09 06:36:03;;;;;;;1999.90;999.90;;;18.20;99.90;;;;;;5055658;28;20056;-73
2022/09/09 06:38:29;;;;;;;1999.90;999.90;;;18.30;99.90;;;;;;5055752;28;20052;-74
2022/09/09 06:40:58;;;;;;;1999.90;999.90;;;18.40;99.90;;;;;;5055141;28;20059;-74
2022/09/09 06:43:24;;;;;;;1999.90;999.90;;;18.40;99.90;;;;;;5055109;28;20112;-82
2022/09/09 06:45:58;;;;;;;1999.90;999.90;;;18.60;99.90;;;;;;5054144;28;20032;-74
2022/09/09 06:48:30;;;;;;;1999.90;999.90;;;18.80;99.90;;;;;;5055192;28;20135;-81
2022/09/09 06:51:17;;;;;;;1999.90;999.90;;;19.10;99.90;;;;;;5052536;28;20053;-73
2022/09/09 06:53:44;;;;;;;1999.90;999.90;;;19.10;99.90;;;;;;5057424;28;20086;-74
2022/09/09 06:56:10;;;;;;;1999.90;999.90;;;19.20;99.90;;;;;;5039606;28;20018;-83
2022/09/09 06:58:36;;;;;;;1999.90;999.90;;;19.00;99.90;;;;;;5039699;28;20025;-82
2022/09/09 07:01:06;;;;;;;1999.90;999.90;;;18.50;99.90;;;;;;5055048;28;20104;-74
2022/09/09 07:03:33;;;;;;;1999.90;999.90;;;18.20;99.90;;;;;;5055023;28;20025;-74
2022/09/09 07:05:59;;;;;;;1999.90;999.90;;;18.20;99.90;;;;;;5053939;28;20025;-74
2022/09/09 07:08:25;;;;;;;1999.90;999.90;;;18.20;99.90;;;;;;5055294;28;20534;-74
2022/09/09 07:10:53;;;;;;;1999.90;999.90;;;18.20;99.90;;;;;;5055075;28;20025;-74
2022/09/09 07:13:25;;;;;;;1999.90;999.90;;;18.30;99.90;;;;;;5053718;28;20049;-83
2022/09/09 07:15:51;;;;;;;1999.90;999.90;;;18.40;99.90;;;;;;5054540;28;20013;-74
2022/09/09 07:18:17;;;;;;;1999.90;999.90;;;18.50;99.90;;;;;;5050219;28;20033;-74
2022/09/09 07:20:42;;;;;;;1999.90;999.90;;;18.60;99.90;;;;;;5047160;28;20143;-74
2022/09/09 07:23:08;;;;;;;1999.90;999.90;;;18.70;99.90;;;;;;5052970;28;20507;-74
2022/09/09 07:25:33;;;;;;;1999.90;999.90;;;18.70;99.90;;;;;;5052759;28;20021;-83
2022/09/09 07:27:59;;;;;;;1999.90;999.90;;;18.60;99.90;;;;;;5053930;28;20043;-74
2022/09/09 07:30:25;;;;;;;1999.90;999.90;;;18.70;99.90;;;;;;5054336;28;20039;-74
2022/09/09 07:32:53;;;;;;;1999.90;999.90;;;18.80;99.90;;;;;;5053668;28;20484;-74
2022/09/09 07:35:20;;;;;;;1999.90;999.90;;;19.00;99.90;;;;;;5054075;28;20028;-82
2022/09/09 07:37:45;;;;;;;1999.90;999.90;;;19.10;99.90;;;;;;5054047;28;20021;-74
2022/09/09 07:40:11;;;;;;;1999.90;999.90;;;19.30;99.90;;;;;;5052883;28;20033;-83
2022/09/09 07:42:37;;;;;;;1999.90;999.90;;;19.40;99.90;;;;;;5052981;28;20025;-74
2022/09/09 07:45:03;;;;;;;1999.90;999.90;;;19.70;99.90;;;;;;5053937;28;20029;-83
2022/09/09 07:47:29;;;;;;;1999.90;999.90;;;21.50;99.90;;;;;;5053072;28;20028;-74
2022/09/09 07:49:55;;;;;;;1999.90;999.90;;;23.40;99.90;;;;;;5052264;28;20089;-78
2022/09/09 07:52:21;;;;;;;1999.90;999.90;;;23.50;99.90;;;;;;5052271;28;20023;-74
2022/09/09 07:54:47;;;;;;;1999.90;999.90;;;24.40;99.90;;;;;;5052085;28;20103;-74
2022/09/09 07:57:12;;;;;;;1999.90;999.90;;;24.10;99.90;;;;;;5053952;28;20022;-74
2022/09/09 07:59:38;;;;;;;1999.90;999.90;;;25.30;99.90;;;;;;5052319;28;20025;-74
2022/09/09 08:02:04;;;;;;;1999.90;999.90;;;26.30;99.90;;;;;;5045202;28;20463;-82
2022/09/09 08:04:30;;;;;;;1999.90;999.90;;;24.60;99.90;;;;;;5050479;28;20028;-81
2022/09/09 08:06:59;;;;;;;1999.90;999.90;;;21.80;99.90;;;;;;5053817;28;20021;-74
2022/09/09 08:09:28;;;;;;;1999.90;999.90;;;23.10;99.90;;;;;;5052265;28;20033;-73
2022/09/09 08:11:56;;;;;;;1999.90;999.90;;;23.30;99.90;;;;;;5052952;28;20404;-74
2022/09/09 08:14:22;;;;;;;1999.90;999.90;;;22.50;99.90;;;;;;5052627;28;20025;-75
2022/09/09 08:16:50;;;;;;;1999.90;999.90;;;24.60;99.90;;;;;;5053059;28;20021;-74
2022/09/09 08:19:16;;;;;;;1999.90;999.90;;;24.20;99.90;;;;;;5035939;28;20473;-83
2022/09/09 08:21:43;;;;;;;1999.90;999.90;;;24.00;99.90;;;;;;5046461;28;20032;-75
2022/09/09 08:24:10;;;;;;;1999.90;999.90;;;23.40;99.90;;;;;;5054302;28;20037;-75
2022/09/09 08:26:41;;;;;;;1999.90;999.90;;;22.50;99.90;;;;;;5053077;28;20428;-82
2022/09/09 08:29:10;;;;;;;1999.90;999.90;;;23.10;99.90;;;;;;5052596;28;20049;-73
2022/09/09 08:31:54;;;;;;;1999.90;999.90;;;25.40;99.90;;;;;;5052538;28;20013;-79
2022/09/09 08:34:20;;;;;;;1999.90;999.90;;;24.80;99.90;;;;;;5052966;28;20029;-73
2022/09/09 08:36:47;;;;;;;1999.90;999.90;;;24.10;99.90;;;;;;5052722;28;20467;-73
2022/09/09 08:39:15;;;;;;;1999.90;999.90;;;23.60;99.90;;;;;;5052971;28;20024;-79
2022/09/09 08:42:01;;;;;;;1999.90;999.90;;;22.30;99.90;;;;;;5053039;28;20028;-81
2022/09/09 08:45:05;;;;;;;1999.90;999.90;;;21.30;99.90;;;;;;5051436;28;20175;-81
2022/09/09 08:47:49;;;;;;;1999.90;999.90;;;20.60;99.90;;;;;;5048626;28;20028;-81
2022/09/09 08:50:33;;;;;;;1999.90;999.90;;;20.00;99.90;;;;;;5050814;28;20071;-72
2022/09/09 08:53:08;;;;;;;1999.90;999.90;;;20.20;99.90;;;;;;5050699;28;20010;-73
2022/09/09 08:55:39;;;;;;;1999.90;999.90;;;24.00;99.90;;;;;;5048469;28;20100;-81
2022/09/09 08:58:21;;;;;;;1999.90;999.90;;;26.10;99.90;;;;;;5052791;28;20079;-81
2022/09/09 09:01:08;;;;;;;1999.90;999.90;;;25.90;99.70;;;;;;5049991;28;20112;-73
2022/09/09 09:04:00;;;;;;;1999.90;999.90;;;23.30;99.90;;;;;;5040812;28;20387;-73
2022/09/09 09:06:26;;;;;;;1999.90;999.90;;;21.80;99.90;;;;;;5051149;28;20115;-80
2022/09/09 09:09:11;;;;;;;1999.90;999.90;;;20.60;99.90;;;;;;5052196;28;20060;-72
2022/09/09 09:12:00;;;;;;;1999.90;999.90;;;20.30;99.90;;;;;;5051021;28;20017;-80
2022/09/09 09:14:30;;;;;;;1999.90;999.90;;;20.30;99.90;;;;;;5052274;28;20025;-72
2022/09/09 09:17:03;;;;;;;1999.90;999.90;;;20.40;99.90;;;;;;5052232;28;20022;-73
2022/09/09 09:19:32;;;;;;;1999.90;999.90;;;22.80;99.90;;;;;;5046160;28;20491;-81
2022/09/09 09:22:02;;;;;;;1999.90;999.90;;;23.40;99.90;;;;;;5050732;28;20028;-82
2022/09/09 09:24:42;;;;;;;1999.90;999.90;;;22.60;99.90;;;;;;5050594;28;20025;-80
2022/09/09 09:27:13;;;;;;;1999.90;999.90;;;22.70;99.90;;;;;;5035547;28;20029;-73
2022/09/09 09:29:43;;;;;;;1999.90;999.90;;;24.60;99.90;;;;;;5050912;28;20135;-73
2022/09/09 09:32:14;;;;;;;1999.90;999.90;;;23.90;99.90;;;;;;5051646;28;20040;-81
2022/09/09 09:34:39;;;;;;;1999.90;999.90;;;24.30;99.90;;;;;;5052045;28;20065;-81
2022/09/09 09:37:31;;;;;;;1999.90;999.90;;;25.10;99.90;;;;;;5050767;28;20048;-73
2022/09/09 09:40:07;;;;;;;1999.90;999.90;;;25.30;99.90;;;;;;5051872;28;20112;-73
2022/09/09 09:42:32;;;;;;;1999.90;999.90;;;24.60;99.70;;;;;;5050432;28;20437;-74
2022/09/09 09:45:14;;;;;;;1999.90;999.90;;;25.00;99.90;;;;;;5051877;28;20075;-81
2022/09/09 09:47:41;;;;;;;1999.90;999.90;;;25.00;99.90;;;;;;5051449;28;20025;-73
2022/09/09 09:50:18;;;;;;;1999.90;999.90;;;25.30;99.90;;;;;;5051702;28;20037;-81
2022/09/09 09:52:57;;;;;;;1999.90;999.90;;;25.10;99.90;;;;;;5052011;28;20025;-73
2022/09/09 09:55:24;;;;;;;1999.90;999.90;;;26.60;99.90;;;;;;5050129;28;20391;-74
2022/09/09 09:57:50;;;;;;;1999.90;999.90;;;26.80;98.00;;;;;;5051631;28;20017;-73
2022/09/09 10:00:20;;;;;;;1999.90;999.90;;;27.70;97.30;;;;;;5051583;28;20033;-82
2022/09/09 10:02:46;;;;;;;1999.90;999.90;;;27.20;97.20;;;;;;5051992;28;20013;-82
2022/09/09 10:05:17;;;;;;;1999.90;999.90;;;26.10;99.00;;;;;;5051386;28;20025;-81
2022/09/09 10:07:45;;;;;;;1999.90;999.90;;;24.40;99.90;;;;;;5051675;28;20377;-72
2022/09/09 10:10:46;;;;;;;1999.90;999.90;;;22.60;99.90;;;;;;5051502;28;20029;-81
2022/09/09 10:13:25;;;;;;;1999.90;999.90;;;20.70;99.90;;;;;;5051219;28;20056;-73
2022/09/09 10:15:54;;;;;;;1999.90;999.90;;;19.70;99.90;;;;;;5051485;28;20029;-80
2022/09/09 10:18:31;;;;;;;1999.90;999.90;;;19.10;99.90;;;;;;5042437;28;20083;-72
2022/09/09 10:21:19;;;;;;;1999.90;999.90;;;19.10;99.90;;;;;;5038144;28;20033;-72
2022/09/09 10:24:03;;;;;;;1999.90;999.90;;;19.30;99.90;;;;;;5054018;28;20177;-82
2022/09/09 10:26:39;;;;;;;1999.90;999.90;;;19.60;99.90;;;;;;5051645;28;20028;-80
2022/09/09 10:29:14;;;;;;;1999.90;999.90;;;20.00;99.90;;;;;;5051519;28;20534;-80
2022/09/09 10:31:55;;;;;;;1999.90;999.90;;;20.50;99.90;;;;;;5052088;28;20064;-81
2022/09/09 10:34:45;;;;;;;1999.90;999.90;;;20.90;99.90;;;;;;5055534;28;20017;-73
2022/09/09 10:37:36;;;;;;;1999.90;999.90;;;21.60;99.90;;;;;;5055062;28;20507;-80
2022/09/09 10:40:31;;;;;;;1999.90;999.90;;;21.90;99.90;;;;;;5053766;28;20033;-81
2022/09/09 10:43:35;;;;;;;1999.90;999.90;;;22.00;99.90;;;;;;5051596;28;20025;-81
2022/09/09 10:46:17;;;;;;;1999.90;999.90;;;22.20;99.90;;;;;;5050044;28;20009;-74
2022/09/09 10:48:52;;;;;;;1999.90;999.90;;;22.50;99.90;;;;;;5052429;28;20029;-73
2022/09/09 10:51:33;;;;;;;1999.90;999.90;;;22.20;99.90;;;;;;5053852;28;20045;-81
2022/09/09 10:54:30;;;;;;;1999.90;999.90;;;22.00;99.90;;;;;;5052592;28;20035;-81
2022/09/09 10:57:03;;;;;;;1999.90;999.90;;;22.10;99.90;;;;;;5051588;28;20707;-73
2022/09/09 10:59:31;;;;;;;;;;;23.10;99.90;;;;;;5053297;28;20033;-74
2022/09/09 11:02:16;;;;;;;1999.90;999.90;;;23.00;99.90;;;;;;5052753;28;19912;-73
2022/09/09 11:04:53;;;;;;;1999.90;999.90;;;23.00;99.90;;;;;;5050003;28;20017;-81
2022/09/09 11:07:42;;;;;;;1999.90;999.90;;;22.70;99.90;;;;;;5053101;28;20460;-81
2022/09/09 11:10:40;;;;;;;1999.90;999.90;;;22.50;99.90;;;;;;5049549;28;20021;-73
2022/09/09 11:13:22;;;;;;;1999.90;999.90;;;22.30;99.90;;;;;;5050435;28;20029;-73
2022/09/09 11:15:57;;;;;;;1999.90;999.90;;;21.40;99.90;;;;;;5049863;28;20070;-81
2022/09/09 11:18:23;;;;;;;1999.90;999.90;;;21.60;99.90;;;;;;5052787;28;20087;-80
2022/09/09 11:20:55;;;;;;;1999.90;999.90;;;22.10;99.90;;;;;;5053512;28;20056;-81
2022/09/09 11:23:28;;;;;;;1999.90;999.90;;;22.10;99.90;;;;;;5054442;28;20423;-81
2022/09/09 11:25:58;;;;;;;;;;;22.20;99.90;;;;;;5050977;28;20064;-73
2022/09/09 11:28:47;;;;;;;1999.90;999.90;;;22.30;99.90;;;;;;5054246;28;20390;-72
2022/09/09 11:31:31;;;;;;;1999.90;999.90;;;22.80;99.90;;;;;;5052937;28;20025;-73
2022/09/09 11:34:24;;;;;;;1999.90;999.90;;;23.00;99.90;;;;;;5054493;28;20044;-73
2022/09/09 11:37:17;;;;;;;1999.90;999.90;;;22.60;99.90;;;;;;5054040;28;20032;-82
2022/09/09 11:40:17;;;;;;;1999.90;999.90;;;23.30;99.90;;;;;;5053848;28;20039;-74
2022/09/09 11:42:43;;;;;;;1999.90;999.90;;;23.80;99.90;;;;;;5051814;28;20515;-73
2022/09/09 11:45:23;;;;;;;1999.90;999.90;;;23.40;99.90;;;;;;5053995;28;20021;-82
2022/09/09 11:47:55;;;;;;;1999.90;999.90;;;22.60;99.90;;;;;;5054165;28;20037;-73
2022/09/09 11:50:21;;;;;;;1999.90;999.90;;;22.70;99.90;;;;;;5053333;28;20029;-73
2022/09/09 11:52:49;;;;;;;1999.90;999.90;;;23.20;99.90;;;;;;5052297;28;20028;-74
2022/09/09 11:55:32;;;;;;;1999.90;999.90;;;23.50;99.90;;;;;;5051827;28;20032;-74
2022/09/09 11:58:00;;;;;;;1999.90;999.90;;;23.40;99.90;;;;;;5051839;28;20503;-73
2022/09/09 12:00:58;;;;;;;1999.90;999.90;;;23.00;99.90;;;;;;5050998;28;20025;-81
2022/09/09 12:03:46;;;;;;;1999.90;999.90;;;22.60;99.90;;;;;;5038324;28;20385;-74
2022/09/09 12:06:24;;;;;;;1999.90;999.90;;;22.80;99.90;;;;;;5048572;28;20063;-73
2022/09/09 12:08:55;;;;;;;1999.90;999.90;;;22.60;99.90;;;;;;5051165;28;20025;-82
2022/09/09 12:11:29;;;;;;;1999.90;999.90;;;22.60;99.90;;;;;;5053550;28;20587;-73
2022/09/09 12:13:57;;;;;;;1999.90;999.90;;;22.10;99.90;;;;;;5053641;28;20392;-74
2022/09/09 12:16:38;;;;;;;1999.90;999.90;;;22.10;99.90;;;;;;5053011;28;20024;-73
2022/09/09 12:19:24;;;;;;;1999.90;999.90;;;22.30;99.90;;;;;;5032971;28;20082;-72
2022/09/09 12:22:04;;;;;;;1999.90;999.90;;;22.30;99.90;;;;;;5033013;28;20535;-80
2022/09/09 12:24:41;;;;;;;1999.90;999.90;;;22.30;99.90;;;;;;5040879;28;20025;-74
2022/09/09 12:27:41;;;;;;;1999.90;999.90;;;22.30;99.90;;;;;;5038372;28;20025;-82